Portsmouth, Ohio
Current Conditions -  °F | °C
As of 11:35 AM on Monday 24 Nov 2014 (Local Time) from KDWU Reporting Station
Broken Clouds Broken Clouds  
Wind Chill: 66°   Ceiling: 6500
Heat Index: 66°   Visibility: 10mi
Dew Point: 48°   Wind: 13mph
Humidity: 52%   Direction: 260°W
Pressure: 29.49"   Gusts: 20mph
Location:  38.74°N, 82.99°W
Report Text: KDWU 241635Z AUTO 26011G17KT 10SM BKN065 19/09 A2949 RMK AO1
Loading
Personal Weather Stations






























Interactive Weather Map New forecast layout! Learn more

10-Day Weather Forecast

Advertisements
Track Severe Weather on mobile